createdAt,value
2018-10-12T00:00:09.029Z,43.74
2018-10-12T00:01:14.750Z,43.54
2018-10-12T00:02:17.467Z,44.05
2018-10-12T00:03:20.174Z,43.62
2018-10-12T00:04:23.254Z,43.97
2018-10-12T00:05:25.902Z,43.47
2018-10-12T00:06:28.753Z,43.81
2018-10-12T00:07:31.398Z,44.10
2018-10-12T00:08:34.389Z,43.70
2018-10-12T00:09:37.075Z,43.74
2018-10-12T00:10:39.730Z,44.08
2018-10-12T00:11:42.382Z,43.71
2018-10-12T00:12:45.027Z,43.94
2018-10-12T00:13:47.739Z,44.06
2018-10-12T00:14:50.401Z,43.92
2018-10-12T00:15:53.042Z,43.74
2018-10-12T00:16:55.694Z,44.12
2018-10-12T00:17:58.750Z,43.96
2018-10-12T00:19:01.492Z,44.17
2018-10-12T00:20:04.670Z,43.71
2018-10-12T00:21:07.322Z,43.95
2018-10-12T00:22:09.974Z,43.98
2018-10-12T00:23:12.626Z,43.63
2018-10-12T00:24:15.330Z,44.01
2018-10-12T00:25:17.994Z,44.13
2018-10-12T00:26:20.670Z,44.20
2018-10-12T00:27:23.322Z,43.82
2018-10-12T00:28:25.966Z,43.69
2018-10-12T00:29:28.814Z,43.71
2018-10-12T00:30:31.446Z,44.18
2018-10-12T00:31:34.094Z,44.23
2018-10-12T00:32:36.758Z,44.20
2018-10-12T00:33:39.416Z,43.96
2018-10-12T00:34:42.066Z,44.25
2018-10-12T00:35:44.722Z,43.66
2018-10-12T00:36:47.402Z,43.77
2018-10-12T00:37:50.297Z,43.79
2018-10-12T00:38:52.938Z,44.09
2018-10-12T00:39:55.642Z,43.81
2018-10-12T00:40:58.295Z,44.00
2018-10-12T00:42:00.971Z,44.35
2018-10-12T00:43:03.614Z,44.05
2018-10-12T00:44:06.345Z,44.32
2018-10-12T00:45:09.071Z,44.24
2018-10-12T00:46:11.754Z,43.95
2018-10-12T00:47:14.378Z,44.07
2018-10-12T00:48:17.018Z,43.79
2018-10-12T00:49:19.666Z,43.82
2018-10-12T00:50:22.382Z,44.23
2018-10-12T00:51:25.038Z,44.32
2018-10-12T00:52:27.687Z,43.87
2018-10-12T00:53:30.339Z,44.39
2018-10-12T00:54:32.975Z,44.18
2018-10-12T00:55:35.673Z,44.13
2018-10-12T00:56:38.351Z,44.00
2018-10-12T00:57:41.006Z,43.91
2018-10-12T00:58:43.654Z,44.19
2018-10-12T00:59:46.295Z,44.22
2018-10-12T01:00:48.994Z,43.80
2018-10-12T01:01:51.674Z,44.31
2018-10-12T01:02:54.722Z,43.87
2018-10-12T01:03:57.355Z,44.04
2018-10-12T01:05:00.000Z,43.95
2018-10-12T01:06:02.811Z,44.38
2018-10-12T01:07:05.534Z,43.85
2018-10-12T01:08:08.334Z,44.25
2018-10-12T01:09:11.066Z,44.30
2018-10-12T01:10:13.780Z,43.87
2018-10-12T01:11:16.472Z,44.05
2018-10-12T01:12:31.262Z,44.09
2018-10-12T01:13:33.904Z,44.02
2018-10-12T01:14:36.566Z,43.91
2018-10-12T01:15:39.294Z,44.03
2018-10-12T01:16:41.975Z,44.47
2018-10-12T01:17:44.694Z,44.05
2018-10-12T01:18:47.422Z,43.89
2018-10-12T01:19:50.244Z,44.21
2018-10-12T01:20:52.988Z,44.37
2018-10-12T01:21:55.746Z,44.05
2018-10-12T01:22:58.406Z,43.90
2018-10-12T01:24:01.082Z,44.42
2018-10-12T01:25:04.635Z,44.38
2018-10-12T01:26:07.394Z,44.03
2018-10-12T01:27:10.146Z,43.87
2018-10-12T01:28:12.814Z,44.11
2018-10-12T01:29:15.558Z,43.88
2018-10-12T01:30:18.253Z,44.11
2018-10-12T01:31:20.914Z,43.95
2018-10-12T01:32:28.944Z,43.91
2018-10-12T01:33:31.699Z,44.32
2018-10-12T01:34:34.342Z,44.44
2018-10-12T01:35:37.007Z,44.07
2018-10-12T01:36:39.686Z,44.26
2018-10-12T01:37:42.715Z,44.04
2018-10-12T01:38:45.370Z,44.05
2018-10-12T01:39:48.250Z,44.11
2018-10-12T01:40:50.918Z,44.06
2018-10-12T01:41:53.571Z,44.16
2018-10-12T01:42:56.566Z,44.43
2018-10-12T01:43:59.254Z,44.18
2018-10-12T01:45:02.011Z,44.38
2018-10-12T01:46:04.666Z,44.30
2018-10-12T01:47:07.616Z,44.22
2018-10-12T01:48:10.735Z,43.85
2018-10-12T01:49:13.386Z,44.06
2018-10-12T01:50:16.078Z,44.46
2018-10-12T01:51:18.814Z,44.45
2018-10-12T01:52:21.514Z,44.31
2018-10-12T01:53:24.486Z,44.23
2018-10-12T01:54:27.141Z,44.10
2018-10-12T01:55:29.798Z,44.45
2018-10-12T01:56:32.470Z,44.45
2018-10-12T01:57:35.142Z,43.97
2018-10-12T01:58:37.794Z,44.15
2018-10-12T01:59:40.509Z,44.00
2018-10-12T02:00:43.150Z,44.45
2018-10-12T02:01:45.790Z,44.34
2018-10-12T02:02:48.472Z,44.04
2018-10-12T02:03:51.415Z,44.43
2018-10-12T02:04:54.081Z,43.96
2018-10-12T02:05:56.790Z,44.29
2018-10-12T02:06:59.686Z,43.94
2018-10-12T02:08:02.373Z,44.48
2018-10-12T02:09:06.450Z,44.27
2018-10-12T02:10:09.316Z,44.07
2018-10-12T02:11:11.918Z,44.21
2018-10-12T02:12:14.619Z,44.43
2018-10-12T02:13:17.282Z,44.63
2018-10-12T02:14:20.087Z,44.43
2018-10-12T02:15:22.740Z,44.63
2018-10-12T02:16:25.399Z,44.51
2018-10-12T02:17:28.058Z,44.20
2018-10-12T02:18:30.699Z,44.39
2018-10-12T02:19:33.658Z,44.62
2018-10-12T02:20:36.328Z,44.58
2018-10-12T02:21:38.970Z,44.55
2018-10-12T02:22:42.058Z,44.58
2018-10-12T02:23:44.703Z,44.47
2018-10-12T02:24:47.622Z,44.56
2018-10-12T02:25:50.290Z,44.32
2018-10-12T02:26:52.996Z,44.75
2018-10-12T02:27:55.636Z,44.61
2018-10-12T02:28:58.666Z,44.64
2018-10-12T02:30:01.371Z,44.84
2018-10-12T02:31:04.040Z,44.84
2018-10-12T02:32:06.726Z,44.79
2018-10-12T02:33:09.386Z,44.51
2018-10-12T02:34:12.082Z,44.32
2018-10-12T02:35:14.775Z,44.88
2018-10-12T02:36:17.419Z,44.75
2018-10-12T02:37:20.067Z,44.60
2018-10-12T02:38:22.823Z,44.63
2018-10-12T02:39:25.545Z,44.88
2018-10-12T02:40:28.311Z,44.41
2018-10-12T02:41:31.622Z,44.36
2018-10-12T02:42:34.267Z,44.42
2018-10-12T02:43:36.901Z,44.18
2018-10-12T02:44:39.555Z,44.15
2018-10-12T02:45:42.259Z,44.50
2018-10-12T02:46:44.930Z,44.28
2018-10-12T02:47:47.575Z,43.84
2018-10-12T02:48:50.220Z,44.36
2018-10-12T02:49:52.889Z,44.22
2018-10-12T02:50:55.603Z,44.02
2018-10-12T02:51:58.247Z,43.66
2018-10-12T02:53:00.912Z,43.87
2018-10-12T02:54:03.602Z,44.11
2018-10-12T02:55:06.295Z,43.64
2018-10-12T02:56:13.490Z,43.79
2018-10-12T02:57:16.166Z,43.91
2018-10-12T02:58:18.830Z,43.47
2018-10-12T02:59:21.494Z,43.99
2018-10-12T03:00:24.126Z,43.85
2018-10-12T03:01:26.837Z,43.95
2018-10-12T03:02:29.491Z,43.47
2018-10-12T03:03:32.172Z,43.55
2018-10-12T03:04:34.822Z,43.65
2018-10-12T03:05:37.462Z,43.52
2018-10-12T03:06:40.113Z,43.57
2018-10-12T03:07:42.794Z,43.42
2018-10-12T03:08:45.789Z,43.81
2018-10-12T03:09:48.451Z,43.45
2018-10-12T03:10:51.113Z,43.84
2018-10-12T03:11:53.758Z,43.67
2018-10-12T03:12:56.659Z,43.60
2018-10-12T03:13:59.310Z,43.92
2018-10-12T03:15:01.992Z,43.82
2018-10-12T03:16:12.098Z,43.83
2018-10-12T03:17:14.822Z,43.90
2018-10-12T03:18:17.464Z,44.08
2018-10-12T03:19:20.141Z,43.61
2018-10-12T03:20:22.802Z,43.84
2018-10-12T03:21:25.467Z,43.70
2018-10-12T03:22:28.162Z,44.26
2018-10-12T03:23:30.818Z,44.02
2018-10-12T03:24:33.463Z,43.75
2018-10-12T03:25:36.146Z,44.43
2018-10-12T03:26:38.802Z,44.20
2018-10-12T03:27:52.566Z,43.85
2018-10-12T03:28:55.494Z,44.10
2018-10-12T03:29:58.158Z,44.24
2018-10-12T03:31:01.464Z,43.94
2018-10-12T03:32:04.210Z,44.14
2018-10-12T03:33:06.975Z,44.56
2018-10-12T03:34:09.772Z,44.08
2018-10-12T03:35:12.474Z,44.47
2018-10-12T03:36:15.261Z,44.31
2018-10-12T03:37:18.318Z,44.11
2018-10-12T03:38:21.000Z,44.44
2018-10-12T03:39:23.702Z,44.09
2018-10-12T03:40:26.398Z,44.53
2018-10-12T03:41:29.130Z,44.31
2018-10-12T03:42:31.840Z,44.79
2018-10-12T03:43:34.874Z,44.27
2018-10-12T03:44:37.547Z,44.29
2018-10-12T03:45:40.557Z,44.42
2018-10-12T03:46:43.541Z,44.91
2018-10-12T03:47:46.226Z,44.38
2018-10-12T03:48:48.920Z,44.43
2018-10-12T03:49:51.623Z,44.85
2018-10-12T03:50:54.306Z,44.63
2018-10-12T03:51:57.098Z,44.66
2018-10-12T03:52:59.723Z,44.89
2018-10-12T03:54:02.435Z,44.97
2018-10-12T03:55:05.378Z,44.47
2018-10-12T03:56:08.378Z,44.96
2018-10-12T03:57:11.129Z,45.19
2018-10-12T03:58:13.888Z,44.87
2018-10-12T03:59:16.582Z,44.94
2018-10-12T04:00:19.319Z,44.65
2018-10-12T04:01:22.023Z,44.67
2018-10-12T04:02:24.723Z,45.20
2018-10-12T04:03:27.443Z,45.13
2018-10-12T04:04:30.158Z,44.75
2018-10-12T04:05:32.856Z,45.28
2018-10-12T04:06:35.555Z,44.80
2018-10-12T04:07:38.274Z,45.32
2018-10-12T04:08:40.990Z,45.11
2018-10-12T04:09:43.725Z,44.87
2018-10-12T04:10:46.433Z,44.93
2018-10-12T04:11:49.146Z,45.32
2018-10-12T04:12:52.120Z,45.40
2018-10-12T04:13:54.839Z,45.22
2018-10-12T04:14:57.516Z,44.93
2018-10-12T04:16:00.265Z,44.99
2018-10-12T04:17:02.955Z,45.59
2018-10-12T04:18:05.658Z,45.31
2018-10-12T04:19:08.530Z,45.23
2018-10-12T04:20:11.415Z,45.55
2018-10-12T04:21:14.124Z,45.68
2018-10-12T04:22:20.578Z,45.87
2018-10-12T04:23:23.284Z,45.33
2018-10-12T04:24:26.035Z,45.86
2018-10-12T04:25:28.807Z,45.35
2018-10-12T04:26:31.524Z,45.84
2018-10-12T04:27:34.218Z,46.01
2018-10-12T04:28:36.914Z,45.33
2018-10-12T04:29:39.688Z,45.79
2018-10-12T04:30:42.427Z,45.45
2018-10-12T04:31:45.149Z,45.41
2018-10-12T04:32:47.857Z,45.82
2018-10-12T04:33:50.625Z,45.76
2018-10-12T04:34:53.365Z,45.92
2018-10-12T04:35:56.108Z,45.57
2018-10-12T04:36:58.806Z,45.94
2018-10-12T04:38:01.578Z,45.47
2018-10-12T04:39:15.377Z,45.50
2018-10-12T04:41:28.909Z,45.51
2018-10-12T04:42:31.691Z,45.85
2018-10-12T04:43:34.482Z,45.60
2018-10-12T04:44:37.275Z,45.80
2018-10-12T04:45:40.162Z,45.65
2018-10-12T04:46:43.830Z,45.59
2018-10-12T04:47:46.834Z,46.02
2018-10-12T04:48:51.151Z,46.25
2018-10-12T04:49:54.372Z,46.19
2018-10-12T04:50:57.223Z,46.17
2018-10-12T04:52:00.262Z,45.91
2018-10-12T04:53:03.039Z,45.83
2018-10-12T04:54:06.086Z,45.91
2018-10-12T04:55:08.831Z,46.19
2018-10-12T04:56:13.340Z,45.94
2018-10-12T04:57:16.126Z,46.16
2018-10-12T04:58:18.864Z,45.90
2018-10-12T04:59:21.838Z,45.96
2018-10-12T05:00:24.564Z,46.21
2018-10-12T05:01:27.368Z,46.14
2018-10-12T05:02:30.185Z,46.14
2018-10-12T05:03:33.035Z,46.12
2018-10-12T05:04:35.848Z,46.34
2018-10-12T05:05:38.560Z,46.48
2018-10-12T05:06:41.360Z,46.38
2018-10-12T05:07:44.221Z,46.36
2018-10-12T05:08:46.943Z,46.27
2018-10-12T05:09:49.664Z,45.95
2018-10-12T05:10:52.407Z,45.99
2018-10-12T05:11:55.126Z,46.49
2018-10-12T05:12:57.907Z,46.40
2018-10-12T05:14:07.624Z,46.03
2018-10-12T05:15:10.376Z,45.97
2018-10-12T05:16:13.110Z,46.37
2018-10-12T05:17:15.929Z,46.60
2018-10-12T05:18:18.801Z,46.01
2018-10-12T05:19:21.528Z,46.01
2018-10-12T05:20:24.287Z,46.30
2018-10-12T05:21:27.007Z,46.64
2018-10-12T05:22:29.708Z,46.14
2018-10-12T05:23:32.454Z,46.68
2018-10-12T05:24:35.159Z,46.09
2018-10-12T05:25:37.874Z,46.60
2018-10-12T05:26:40.581Z,46.20
2018-10-12T05:27:43.314Z,46.59
2018-10-12T05:28:46.440Z,46.55
2018-10-12T05:29:49.151Z,46.43
2018-10-12T05:30:51.891Z,46.24
2018-10-12T05:31:54.636Z,46.14
2018-10-12T05:32:57.315Z,46.68
2018-10-12T05:35:09.348Z,46.53
2018-10-12T05:36:12.148Z,46.30
2018-10-12T05:37:14.832Z,46.43
2018-10-12T05:38:17.975Z,46.65
2018-10-12T05:39:21.011Z,46.32
2018-10-12T05:40:24.962Z,46.42
2018-10-12T05:41:27.657Z,46.75
2018-10-12T05:42:30.360Z,46.69
2018-10-12T05:43:33.225Z,46.25
2018-10-12T05:44:36.091Z,46.72
2018-10-12T05:45:38.790Z,46.78
2018-10-12T05:46:41.531Z,46.74
2018-10-12T05:47:44.287Z,46.35
2018-10-12T05:48:58.205Z,46.57
2018-10-12T05:50:03.971Z,46.13
2018-10-12T05:51:07.420Z,46.46
2018-10-12T05:52:10.211Z,46.54
2018-10-12T05:53:13.252Z,46.52
2018-10-12T05:54:16.221Z,46.63
2018-10-12T05:55:19.464Z,46.36
2018-10-12T05:56:24.619Z,46.73
2018-10-12T05:57:27.614Z,46.71
2018-10-12T05:58:30.737Z,46.13
2018-10-12T05:59:33.493Z,46.60
2018-10-12T06:00:36.592Z,46.45
2018-10-12T06:01:39.339Z,46.45
2018-10-12T06:02:42.055Z,46.07
2018-10-12T06:03:44.827Z,46.42
2018-10-12T06:04:47.586Z,46.47
2018-10-12T06:05:50.659Z,46.27
2018-10-12T06:06:53.375Z,46.28
2018-10-12T06:07:56.095Z,46.23
2018-10-12T06:08:58.823Z,46.42
2018-10-12T06:10:01.664Z,46.49
2018-10-12T06:11:04.791Z,46.43
2018-10-12T06:12:07.592Z,46.63
2018-10-12T06:13:10.295Z,46.48
2018-10-12T06:14:13.002Z,46.23
2018-10-12T06:15:15.735Z,46.41
2018-10-12T06:16:18.442Z,46.19
2018-10-12T06:17:21.181Z,46.32
2018-10-12T06:18:23.895Z,46.18
2018-10-12T06:19:26.631Z,46.37
2018-10-12T06:20:29.330Z,46.39
2018-10-12T06:21:32.371Z,46.05
2018-10-12T06:22:35.061Z,46.03
2018-10-12T06:23:37.796Z,46.02
2018-10-12T06:24:40.492Z,46.13
2018-10-12T06:25:43.375Z,46.13
2018-10-12T06:26:46.339Z,46.15
2018-10-12T06:27:49.091Z,46.14
2018-10-12T06:28:51.786Z,46.63
2018-10-12T06:29:54.467Z,46.61
2018-10-12T06:30:57.171Z,46.46
2018-10-12T06:32:00.439Z,46.38
2018-10-12T06:33:03.227Z,46.14
2018-10-12T06:34:05.912Z,46.65
2018-10-12T06:35:08.635Z,46.16
2018-10-12T06:36:11.327Z,46.12
2018-10-12T06:37:14.306Z,46.68
2018-10-12T06:38:17.027Z,46.77
2018-10-12T06:39:19.722Z,46.73
2018-10-12T06:40:22.432Z,46.54
2018-10-12T06:41:25.172Z,46.32
2018-10-12T06:42:28.343Z,46.51
2018-10-12T06:43:31.069Z,46.33
2018-10-12T06:44:33.751Z,46.72
2018-10-12T06:45:36.475Z,46.57
2018-10-12T06:46:39.285Z,46.18
2018-10-12T06:47:42.211Z,46.78
2018-10-12T06:48:44.915Z,46.30
2018-10-12T06:49:47.603Z,46.82
2018-10-12T06:50:50.312Z,46.76
2018-10-12T06:51:52.999Z,46.42
2018-10-12T06:52:55.641Z,46.16
2018-10-12T06:53:58.419Z,46.20
2018-10-12T06:55:01.095Z,46.79
2018-10-12T06:56:03.799Z,46.62
2018-10-12T06:57:06.544Z,46.63
2018-10-12T06:58:09.351Z,46.42
2018-10-12T06:59:12.063Z,46.84
2018-10-12T07:00:14.763Z,46.27
2018-10-12T07:01:17.523Z,46.72
2018-10-12T07:02:20.659Z,46.71
2018-10-12T07:03:23.551Z,46.74
2018-10-12T07:04:26.269Z,46.30
2018-10-12T07:05:29.174Z,46.79
2018-10-12T07:06:31.997Z,46.77
2018-10-12T07:07:34.979Z,46.83
2018-10-12T07:08:37.775Z,46.27
2018-10-12T07:09:40.491Z,46.47
2018-10-12T07:10:43.224Z,46.41
2018-10-12T07:11:45.928Z,46.76
2018-10-12T07:12:48.676Z,46.58
2018-10-12T07:13:51.539Z,46.52
2018-10-12T07:14:54.189Z,46.21
2018-10-12T07:15:56.891Z,46.79
2018-10-12T07:16:59.603Z,46.27
2018-10-12T07:18:02.295Z,46.46
2018-10-12T07:19:05.063Z,46.87
2018-10-12T07:20:07.852Z,46.64
2018-10-12T07:21:10.699Z,46.32
2018-10-12T07:22:13.401Z,46.75
2018-10-12T07:23:16.095Z,46.60
2018-10-12T07:24:18.855Z,46.77
2018-10-12T07:25:21.542Z,46.25
2018-10-12T07:26:24.239Z,46.82
2018-10-12T07:27:26.974Z,46.77
2018-10-12T07:28:29.691Z,46.18
2018-10-12T07:29:32.459Z,46.51
2018-10-12T07:30:35.152Z,46.30
2018-10-12T07:31:37.926Z,46.37
2018-10-12T07:32:40.556Z,46.29
2018-10-12T07:33:43.246Z,46.25
2018-10-12T07:34:45.997Z,46.44
2018-10-12T07:35:48.731Z,46.53
2018-10-12T07:36:51.447Z,46.74
2018-10-12T07:37:54.150Z,46.55
2018-10-12T07:38:56.843Z,46.75
2018-10-12T07:39:59.615Z,46.26
2018-10-12T07:41:02.303Z,46.35
2018-10-12T07:42:05.000Z,46.35
2018-10-12T07:43:07.695Z,46.24
2018-10-12T07:44:10.426Z,46.38
2018-10-12T07:45:13.123Z,46.55
2018-10-12T07:46:15.799Z,46.54
2018-10-12T07:47:18.576Z,46.46
2018-10-12T07:48:21.252Z,46.71
2018-10-12T07:49:23.944Z,46.46
2018-10-12T07:50:26.722Z,46.68
2018-10-12T07:51:29.391Z,46.16
2018-10-12T07:52:32.171Z,46.29
2018-10-12T07:53:34.851Z,46.34
2018-10-12T07:54:37.531Z,46.39
2018-10-12T07:55:40.283Z,46.16
2018-10-12T07:56:42.983Z,46.17
2018-10-12T07:57:45.679Z,46.69
2018-10-12T07:58:48.483Z,46.76
2018-10-12T07:59:51.206Z,46.22
2018-10-12T08:00:53.892Z,46.54
2018-10-12T08:01:56.593Z,46.68
2018-10-12T08:02:59.271Z,46.12
2018-10-12T08:04:01.979Z,46.82
2018-10-12T08:05:04.724Z,46.45
2018-10-12T08:06:07.499Z,46.80
2018-10-12T08:07:11.287Z,46.49
2018-10-12T08:08:14.007Z,46.38
2018-10-12T08:09:16.695Z,46.48
2018-10-12T08:10:19.412Z,46.67
2018-10-12T08:11:22.188Z,46.85
2018-10-12T08:12:24.921Z,46.56
2018-10-12T08:13:27.635Z,46.46
2018-10-12T08:14:30.326Z,46.47
2018-10-12T08:15:33.252Z,46.47
2018-10-12T08:16:36.033Z,46.98
2018-10-12T08:17:38.778Z,47.04
2018-10-12T08:18:42.227Z,46.93
2018-10-12T08:19:45.095Z,46.58
2018-10-12T08:20:47.895Z,46.55
2018-10-12T08:21:50.761Z,46.90
2018-10-12T08:22:53.503Z,46.96
2018-10-12T08:23:56.222Z,46.81
2018-10-12T08:24:58.915Z,47.01
2018-10-12T08:26:01.680Z,47.13
2018-10-12T08:27:04.671Z,47.15
2018-10-12T08:28:07.312Z,47.05
2018-10-12T08:29:09.995Z,47.08
2018-10-12T08:30:12.947Z,46.79
2018-10-12T08:31:15.649Z,46.95
2018-10-12T08:32:18.578Z,47.28
2018-10-12T08:33:21.399Z,46.95
2018-10-12T08:34:24.167Z,46.88
2018-10-12T08:35:26.855Z,47.08
2018-10-12T08:36:29.563Z,47.14
2018-10-12T08:37:32.380Z,46.73
2018-10-12T08:38:35.139Z,46.93
2018-10-12T08:39:37.811Z,46.80
2018-10-12T08:40:40.513Z,46.82
2018-10-12T08:41:43.292Z,47.37
2018-10-12T08:42:46.024Z,47.09
2018-10-12T08:43:48.712Z,46.82
2018-10-12T08:44:51.393Z,46.80
2018-10-12T08:45:54.083Z,47.02
2018-10-12T08:46:56.781Z,47.34
2018-10-12T08:47:59.547Z,47.27
2018-10-12T08:49:02.234Z,46.93
2018-10-12T08:50:05.058Z,47.37
2018-10-12T08:51:07.814Z,47.29
2018-10-12T08:52:10.531Z,46.92
2018-10-12T08:53:13.319Z,47.44
2018-10-12T08:54:16.081Z,47.41
2018-10-12T08:55:18.836Z,47.05
2018-10-12T08:56:21.506Z,47.13
2018-10-12T08:57:24.254Z,47.24
2018-10-12T08:58:27.013Z,46.91
2018-10-12T08:59:29.692Z,46.89
2018-10-12T09:00:32.450Z,47.24
2018-10-12T09:01:35.174Z,47.45
2018-10-12T09:02:37.880Z,46.90
2018-10-12T09:03:40.639Z,47.20
2018-10-12T09:04:43.315Z,47.50
2018-10-12T09:05:46.021Z,47.39
2018-10-12T09:06:48.711Z,47.35
2018-10-12T09:07:51.403Z,47.36
2018-10-12T09:08:54.164Z,47.23
2018-10-12T09:09:56.925Z,46.84
2018-10-12T09:10:59.600Z,47.17
2018-10-12T09:12:02.287Z,47.39
2018-10-12T09:13:05.092Z,47.03
2018-10-12T09:14:07.866Z,47.40
2018-10-12T09:15:10.595Z,46.85
2018-10-12T09:16:13.423Z,47.05
2018-10-12T09:17:16.130Z,46.97
2018-10-12T09:18:18.837Z,47.06
2018-10-12T09:19:21.583Z,46.93
2018-10-12T09:20:24.368Z,47.44
2018-10-12T09:21:27.015Z,47.00
2018-10-12T09:22:29.716Z,46.93
2018-10-12T09:23:32.419Z,47.50
2018-10-12T09:24:35.175Z,47.54
2018-10-12T09:25:37.871Z,47.21
2018-10-12T09:26:40.570Z,47.45
2018-10-12T09:27:43.283Z,47.16
2018-10-12T09:28:45.975Z,47.42
2018-10-12T09:29:48.791Z,46.99
2018-10-12T09:30:51.475Z,47.60
2018-10-12T09:31:54.252Z,47.52
2018-10-12T09:32:56.948Z,47.02
2018-10-12T09:33:59.646Z,47.10
2018-10-12T09:35:02.415Z,47.70
2018-10-12T09:36:05.115Z,47.14
2018-10-12T09:37:08.088Z,47.26
2018-10-12T09:38:10.863Z,47.04
2018-10-12T09:39:13.542Z,47.58
2018-10-12T09:40:16.323Z,47.21
2018-10-12T09:41:19.048Z,46.99
2018-10-12T09:42:21.860Z,47.43
2018-10-12T09:43:24.572Z,47.51
2018-10-12T09:44:27.251Z,47.39
2018-10-12T09:45:30.008Z,47.39
2018-10-12T09:46:32.671Z,47.00
2018-10-12T09:47:35.366Z,47.16
2018-10-12T09:48:38.066Z,47.09
2018-10-12T09:49:40.738Z,47.21
2018-10-12T09:50:43.774Z,47.47
2018-10-12T09:51:46.199Z,47.12
2018-10-12T09:52:48.881Z,47.15
2018-10-12T09:53:51.547Z,46.94
2018-10-12T09:54:54.223Z,46.95
2018-10-12T09:55:57.225Z,46.94
2018-10-12T09:57:05.567Z,47.49
2018-10-12T09:58:08.517Z,47.28
2018-10-12T09:59:11.208Z,47.44
2018-10-12T10:00:19.679Z,47.08
2018-10-12T10:01:27.899Z,47.35
2018-10-12T10:02:36.068Z,47.20
2018-10-12T10:03:44.278Z,47.17
2018-10-12T10:04:46.992Z,47.09
2018-10-12T10:05:49.754Z,46.81
2018-10-12T10:06:52.489Z,46.94
2018-10-12T10:07:55.349Z,47.13
2018-10-12T10:08:58.047Z,47.22
2018-10-12T10:10:00.744Z,46.84
2018-10-12T10:11:03.475Z,47.02
2018-10-12T10:12:06.526Z,47.04
2018-10-12T10:13:09.236Z,46.56
2018-10-12T10:14:11.983Z,46.61
2018-10-12T10:15:14.687Z,47.01
2018-10-12T10:16:17.402Z,46.74
2018-10-12T10:17:20.480Z,46.78
2018-10-12T10:18:23.248Z,47.03
2018-10-12T10:19:26.034Z,46.63
2018-10-12T10:20:28.725Z,47.05
2018-10-12T10:21:31.447Z,46.64
2018-10-12T10:22:34.535Z,47.05
2018-10-12T10:23:37.238Z,46.89
2018-10-12T10:24:39.995Z,46.81
2018-10-12T10:25:42.959Z,47.08
2018-10-12T10:26:45.686Z,46.63
2018-10-12T10:27:48.745Z,46.97
2018-10-12T10:28:51.467Z,47.04
2018-10-12T10:29:54.212Z,46.52
2018-10-12T10:30:59.491Z,46.55
2018-10-12T10:32:02.235Z,46.68
2018-10-12T10:33:05.339Z,47.03
2018-10-12T10:34:08.498Z,47.03
2018-10-12T10:35:11.091Z,46.90
2018-10-12T10:36:13.825Z,46.85
2018-10-12T10:37:16.571Z,46.98
2018-10-12T10:38:19.281Z,46.80
2018-10-12T10:39:22.002Z,47.01
2018-10-12T10:40:24.863Z,46.45
2018-10-12T10:41:27.595Z,46.97
2018-10-12T10:42:30.343Z,46.56
2018-10-12T10:43:33.343Z,46.57
2018-10-12T10:44:36.147Z,46.60
2018-10-12T10:45:38.915Z,46.34
2018-10-12T10:46:41.713Z,46.24
2018-10-12T10:47:44.505Z,46.76
2018-10-12T10:48:47.564Z,46.52
2018-10-12T10:49:50.356Z,46.90
2018-10-12T10:50:53.195Z,46.44
2018-10-12T10:51:55.925Z,46.69
2018-10-12T10:52:58.731Z,46.35
2018-10-12T10:54:01.773Z,46.49
2018-10-12T10:55:04.639Z,46.32
2018-10-12T10:56:07.511Z,46.38
2018-10-12T10:57:10.407Z,46.21
2018-10-12T10:58:13.139Z,46.71
2018-10-12T10:59:16.175Z,46.56
2018-10-12T11:00:18.955Z,46.69
2018-10-12T11:01:21.720Z,46.81
2018-10-12T11:02:24.469Z,46.89
2018-10-12T11:03:27.182Z,46.91
2018-10-12T11:04:31.042Z,46.51
2018-10-12T11:05:33.967Z,46.71
2018-10-12T11:06:36.713Z,46.55
2018-10-12T11:07:39.467Z,46.56
2018-10-12T11:08:42.229Z,46.92
2018-10-12T11:09:45.200Z,46.40
2018-10-12T11:10:48.016Z,46.53
2018-10-12T11:11:50.739Z,46.97
2018-10-12T11:12:53.547Z,46.45
2018-10-12T11:13:56.301Z,46.62
2018-10-12T11:14:59.361Z,46.43
2018-10-12T11:16:02.129Z,46.50
2018-10-12T11:17:04.889Z,46.60
2018-10-12T11:18:07.623Z,46.49
2018-10-12T11:19:10.414Z,46.61
2018-10-12T11:20:13.506Z,46.95
2018-10-12T11:21:16.254Z,46.34
2018-10-12T11:22:19.004Z,46.64
2018-10-12T11:23:21.743Z,46.91
2018-10-12T11:24:24.507Z,46.62
2018-10-12T11:25:27.377Z,47.05
2018-10-12T11:26:30.211Z,47.06
2018-10-12T11:27:32.984Z,47.01
2018-10-12T11:28:35.710Z,46.55
2018-10-12T11:29:38.419Z,46.61
2018-10-12T11:30:41.540Z,46.53
2018-10-12T11:31:44.280Z,46.96
2018-10-12T11:32:47.056Z,46.56
2018-10-12T11:33:49.803Z,46.85
2018-10-12T11:34:52.582Z,46.64
2018-10-12T11:35:55.630Z,46.49
2018-10-12T11:36:58.347Z,47.02
2018-10-12T11:38:01.079Z,46.95
2018-10-12T11:39:06.755Z,46.81
2018-10-12T11:40:09.527Z,46.58
2018-10-12T11:41:12.614Z,46.62
2018-10-12T11:42:15.320Z,46.95
2018-10-12T11:43:35.806Z,46.81
2018-10-12T11:44:38.513Z,47.16
2018-10-12T11:45:41.236Z,46.85
2018-10-12T11:46:44.250Z,46.62
2018-10-12T11:47:46.975Z,46.69
2018-10-12T11:48:49.687Z,46.72
2018-10-12T11:49:52.388Z,47.21
2018-10-12T11:50:55.124Z,47.25
2018-10-12T11:51:58.158Z,47.31
2018-10-12T11:53:00.894Z,47.10
2018-10-12T11:54:03.667Z,47.12
2018-10-12T11:55:07.261Z,47.35
2018-10-12T11:56:09.551Z,47.06
2018-10-12T11:57:12.587Z,46.83
2018-10-12T11:58:15.379Z,47.20
2018-10-12T11:59:18.168Z,46.81
2018-10-12T12:00:20.879Z,46.98
2018-10-12T12:01:23.615Z,47.30
2018-10-12T12:02:26.409Z,46.82
2018-10-12T12:03:29.151Z,47.27
2018-10-12T12:04:31.887Z,46.82
2018-10-12T12:05:34.615Z,47.17
2018-10-12T12:06:37.343Z,46.90
2018-10-12T12:07:40.241Z,47.27
2018-10-12T12:08:42.944Z,47.39
2018-10-12T12:09:45.687Z,46.90
2018-10-12T12:10:48.439Z,47.59
2018-10-12T12:11:51.174Z,47.50
2018-10-12T12:12:53.970Z,47.16
2018-10-12T12:13:56.766Z,47.05
2018-10-12T12:14:59.423Z,47.47
2018-10-12T12:16:02.136Z,47.38
2018-10-12T12:17:04.899Z,47.52
2018-10-12T12:18:07.723Z,47.00
2018-10-12T12:19:10.541Z,47.26
2018-10-12T12:20:13.247Z,47.04
2018-10-12T12:21:16.063Z,47.12
2018-10-12T12:22:18.824Z,47.04
2018-10-12T12:23:21.540Z,47.56
2018-10-12T12:24:24.235Z,47.40
2018-10-12T12:25:26.979Z,47.34
2018-10-12T12:26:29.731Z,46.99
2018-10-12T12:27:32.459Z,47.54
2018-10-12T12:28:35.218Z,47.18
2018-10-12T12:29:37.955Z,47.23
2018-10-12T12:30:40.718Z,47.40
2018-10-12T12:31:43.418Z,47.22
2018-10-12T12:32:46.171Z,46.99
2018-10-12T12:33:48.997Z,47.38
2018-10-12T12:34:51.841Z,47.05
2018-10-12T12:35:54.859Z,47.55
2018-10-12T12:36:57.275Z,47.26
2018-10-12T12:38:00.007Z,47.17
2018-10-12T12:39:03.211Z,47.54
2018-10-12T12:40:06.023Z,47.54
2018-10-12T12:41:08.775Z,47.55
2018-10-12T12:42:11.479Z,47.45
2018-10-12T12:43:14.215Z,46.96
2018-10-12T12:44:17.009Z,46.94
2018-10-12T12:45:19.693Z,47.46
2018-10-12T12:46:22.347Z,47.15
2018-10-12T12:47:25.256Z,47.44
2018-10-12T12:48:28.122Z,47.54
2018-10-12T12:49:30.825Z,47.27
2018-10-12T12:50:33.242Z,47.42
2018-10-12T12:51:35.902Z,47.42
2018-10-12T12:52:38.582Z,47.05
2018-10-12T12:53:41.681Z,46.86
2018-10-12T12:54:44.376Z,47.21
2018-10-12T12:55:47.041Z,46.99
2018-10-12T12:56:49.753Z,46.95
2018-10-12T12:57:52.418Z,47.03
2018-10-12T12:58:56.311Z,46.94
2018-10-12T12:59:59.043Z,46.94
2018-10-12T13:01:01.693Z,47.31
2018-10-12T13:02:04.371Z,47.54
2018-10-12T13:03:07.031Z,46.90
2018-10-12T13:04:09.728Z,47.02
2018-10-12T13:05:12.391Z,47.03
2018-10-12T13:06:15.040Z,47.46
2018-10-12T13:07:17.695Z,46.96
2018-10-12T13:08:20.443Z,47.30
2018-10-12T13:09:23.123Z,47.33
2018-10-12T13:10:25.826Z,47.09
2018-10-12T13:11:28.479Z,47.39
2018-10-12T13:12:31.159Z,46.92
2018-10-12T13:13:33.853Z,47.41
2018-10-12T13:14:36.539Z,47.09
2018-10-12T13:15:39.284Z,47.04
2018-10-12T13:16:41.958Z,47.41
2018-10-12T13:17:44.623Z,47.35
2018-10-12T13:18:47.292Z,47.44
2018-10-12T13:19:50.004Z,47.27
2018-10-12T13:20:52.767Z,46.97
2018-10-12T13:21:55.471Z,47.17
2018-10-12T13:22:58.155Z,47.00
2018-10-12T13:24:00.847Z,47.54
2018-10-12T13:25:03.659Z,47.36
2018-10-12T13:26:06.915Z,47.27
2018-10-12T13:27:09.439Z,47.10
2018-10-12T13:28:12.127Z,47.50
2018-10-12T13:29:14.808Z,47.04
2018-10-12T13:30:17.471Z,47.55
2018-10-12T13:31:20.225Z,47.05
2018-10-12T13:32:22.922Z,47.45